createdAt,value
2022-09-17T00:02:40.672Z,12.47
2022-09-17T00:08:18.833Z,12.5
2022-09-17T00:13:50.491Z,12.34
2022-09-17T00:19:22.238Z,12.3
2022-09-17T00:24:53.926Z,12.13
2022-09-17T00:30:25.661Z,12.3
2022-09-17T00:35:57.322Z,12.14
2022-09-17T00:41:29.102Z,12.29
2022-09-17T00:47:00.786Z,12.27
2022-09-17T00:52:32.658Z,12.33
2022-09-17T00:58:04.342Z,12.21
2022-09-17T01:03:35.993Z,12.07
2022-09-17T01:09:12.165Z,12.02
2022-09-17T01:14:43.849Z,12.03
2022-09-17T01:20:15.557Z,11.9
2022-09-17T01:25:47.269Z,12.07
2022-09-17T01:31:19.065Z,11.84
2022-09-17T01:36:50.668Z,11.96
2022-09-17T01:42:22.523Z,11.9
2022-09-17T01:47:54.203Z,11.94
2022-09-17T01:53:25.908Z,11.81
2022-09-17T01:58:57.514Z,11.88
2022-09-17T02:04:29.323Z,11.89
2022-09-17T02:10:07.451Z,11.85
2022-09-17T02:15:39.308Z,11.8
2022-09-17T02:21:10.873Z,11.79
2022-09-17T02:26:42.587Z,12.01
2022-09-17T02:32:14.352Z,12.0
2022-09-17T02:37:46.019Z,11.82
2022-09-17T02:43:17.789Z,11.77
2022-09-17T02:48:49.439Z,11.78
2022-09-17T02:54:21.188Z,11.66
2022-09-17T02:59:52.945Z,11.7
2022-09-17T03:05:24.642Z,11.71
2022-09-17T03:11:01.655Z,11.77
2022-09-17T03:16:33.424Z,11.62
2022-09-17T03:22:05.146Z,11.62
2022-09-17T03:27:36.817Z,11.48
2022-09-17T03:33:08.554Z,11.56
2022-09-17T03:38:40.213Z,11.52
2022-09-17T03:44:11.941Z,11.48
2022-09-17T03:49:43.732Z,11.58
2022-09-17T03:55:15.409Z,11.38
2022-09-17T04:00:47.401Z,11.35
2022-09-17T04:06:18.927Z,11.4
2022-09-17T04:11:55.006Z,11.31
2022-09-17T04:17:26.744Z,11.27
2022-09-17T04:22:58.462Z,11.18
2022-09-17T04:28:30.169Z,11.15
2022-09-17T04:34:01.892Z,11.15
2022-09-17T04:39:33.692Z,11.17
2022-09-17T04:45:05.377Z,11.09
2022-09-17T04:50:37.044Z,11.04
2022-09-17T04:56:08.776Z,11.38
2022-09-17T05:01:40.547Z,11.28
2022-09-17T05:07:13.812Z,11.19
2022-09-17T05:12:48.370Z,11.08
2022-09-17T05:18:20.101Z,11.16
2022-09-17T05:23:51.774Z,10.93
2022-09-17T05:29:23.486Z,10.93
2022-09-17T05:34:55.235Z,11.09
2022-09-17T05:40:27.011Z,11.01
2022-09-17T05:45:58.645Z,10.82
2022-09-17T05:51:30.384Z,11.09
2022-09-17T05:57:02.341Z,10.99
2022-09-17T06:02:33.832Z,11.18
2022-09-17T06:08:05.606Z,11.03
2022-09-17T06:13:41.637Z,11.16
2022-09-17T06:19:13.386Z,11.13
2022-09-17T06:24:45.097Z,10.87
2022-09-17T06:30:16.823Z,10.87
2022-09-17T06:35:48.534Z,11.01
2022-09-17T06:41:20.262Z,11.0
2022-09-17T06:46:51.989Z,11.17
2022-09-17T06:52:23.757Z,11.17
2022-09-17T06:57:55.509Z,11.17
2022-09-17T07:03:27.182Z,10.85
2022-09-17T07:08:58.882Z,10.97
2022-09-17T07:14:35.019Z,10.87
2022-09-17T07:20:06.797Z,10.99
2022-09-17T07:25:38.529Z,10.86
2022-09-17T07:31:13.858Z,10.56
2022-09-17T07:36:41.940Z,10.55
2022-09-17T07:42:13.649Z,10.84
2022-09-17T07:47:45.425Z,10.89
2022-09-17T07:53:17.090Z,10.98
2022-09-17T07:58:48.877Z,11.11
2022-09-17T08:04:20.587Z,11.16
2022-09-17T08:09:52.329Z,11.14
2022-09-17T08:15:28.410Z,11.0
2022-09-17T08:21:00.237Z,11.27
2022-09-17T08:26:32.711Z,11.53
2022-09-17T08:32:04.651Z,11.44
2022-09-17T08:37:36.231Z,11.6
2022-09-17T08:43:07.989Z,11.65
2022-09-17T08:48:39.670Z,12.09
2022-09-17T08:54:11.418Z,12.31
2022-09-17T08:59:43.134Z,12.06
2022-09-17T09:05:14.822Z,12.59
2022-09-17T09:10:46.625Z,12.53
2022-09-17T09:16:22.918Z,12.53
2022-09-17T09:21:54.659Z,12.53
2022-09-17T09:27:26.154Z,12.5
2022-09-17T09:32:57.845Z,12.42
2022-09-17T09:38:29.549Z,12.77
2022-09-17T09:44:04.616Z,12.59
2022-09-17T09:49:32.994Z,12.72
2022-09-17T09:55:04.861Z,13.01
2022-09-17T10:00:36.427Z,12.63
2022-09-17T10:06:09.069Z,12.77
2022-09-17T10:11:39.916Z,12.85
2022-09-17T10:17:15.997Z,13.16
2022-09-17T10:22:47.744Z,13.5
2022-09-17T10:28:19.503Z,13.29
2022-09-17T10:33:51.181Z,13.8
2022-09-17T10:39:22.895Z,14.47
2022-09-17T10:44:54.655Z,14.79
2022-09-17T10:50:26.367Z,14.66
2022-09-17T10:55:58.168Z,14.73
2022-09-17T11:01:29.849Z,14.9
2022-09-17T11:07:01.549Z,14.81
2022-09-17T11:12:33.290Z,15.06
2022-09-17T11:18:09.409Z,14.93
2022-09-17T11:23:41.141Z,15.08
2022-09-17T11:29:12.798Z,15.23
2022-09-17T11:34:44.530Z,15.68
2022-09-17T11:40:16.303Z,16.05
2022-09-17T11:45:48.032Z,15.56
2022-09-17T11:51:19.709Z,15.42
2022-09-17T11:56:51.482Z,15.39
2022-09-17T12:02:23.280Z,15.12
2022-09-17T12:07:54.998Z,14.55
2022-09-17T12:13:26.622Z,14.39
2022-09-17T12:19:02.713Z,14.11
2022-09-17T12:24:34.422Z,14.18
2022-09-17T12:30:06.233Z,14.37
2022-09-17T12:36:03.339Z,14.13
2022-09-17T12:41:09.623Z,13.73
2022-09-17T12:46:41.390Z,13.54
2022-09-17T12:52:13.109Z,13.68
2022-09-17T12:57:44.759Z,13.3
2022-09-17T13:03:16.496Z,13.11
2022-09-17T13:08:48.233Z,12.95
2022-09-17T13:14:19.953Z,12.98
2022-09-17T13:19:56.097Z,13.47
2022-09-17T13:25:27.780Z,13.31
2022-09-17T13:30:59.532Z,13.29
2022-09-17T13:36:31.484Z,13.52
2022-09-17T13:42:02.991Z,13.76
2022-09-17T13:47:34.712Z,13.86
2022-09-17T13:53:06.434Z,14.25
2022-09-17T13:58:38.137Z,14.21
2022-09-17T14:04:09.885Z,14.08
2022-09-17T14:09:41.657Z,14.32
2022-09-17T14:15:13.389Z,14.76
2022-09-17T14:20:51.425Z,14.87
2022-09-17T14:26:23.132Z,15.36
2022-09-17T14:31:54.885Z,15.5
2022-09-17T14:37:26.661Z,15.48
2022-09-17T14:42:58.348Z,15.4
2022-09-17T14:48:30.049Z,14.97
2022-09-17T14:54:01.777Z,15.05
2022-09-17T14:59:33.569Z,15.39
2022-09-17T15:05:05.265Z,15.65
2022-09-17T15:10:36.934Z,14.93
2022-09-17T15:16:08.780Z,14.78
2022-09-17T15:21:44.798Z,14.7
2022-09-17T15:27:16.569Z,14.37
2022-09-17T15:32:48.239Z,14.3
2022-09-17T15:38:22.590Z,14.54
2022-09-17T15:43:51.947Z,14.76
2022-09-17T15:49:23.410Z,14.87
2022-09-17T15:54:55.152Z,15.09
2022-09-17T16:00:26.929Z,14.78
2022-09-17T16:06:00.444Z,14.75
2022-09-17T16:11:30.254Z,14.82
2022-09-17T16:17:02.017Z,14.93
2022-09-17T16:22:40.184Z,14.96
2022-09-17T16:28:11.853Z,14.71
2022-09-17T16:33:43.547Z,14.66
2022-09-17T16:39:15.361Z,14.89
2022-09-17T16:44:47.086Z,14.65
2022-09-17T16:50:18.865Z,14.52
2022-09-17T16:55:50.538Z,14.62
2022-09-17T17:01:22.295Z,14.39
2022-09-17T17:06:54.057Z,13.87
2022-09-17T17:12:25.789Z,13.37
2022-09-17T17:17:57.454Z,13.46
2022-09-17T17:23:33.664Z,13.73
2022-09-17T17:29:05.370Z,13.27
2022-09-17T17:34:37.050Z,12.75
2022-09-17T17:40:08.835Z,12.9
2022-09-17T17:45:40.489Z,13.31
2022-09-17T17:51:12.300Z,12.9
2022-09-17T17:56:44.000Z,12.72
2022-09-17T18:02:15.911Z,13.01
2022-09-17T18:07:47.437Z,12.84
2022-09-17T18:13:19.123Z,12.88
2022-09-17T18:18:50.833Z,12.77
2022-09-17T18:24:31.036Z,12.49
2022-09-17T18:30:02.713Z,12.73
2022-09-17T18:35:34.436Z,12.85
2022-09-17T18:41:06.185Z,12.7
2022-09-17T18:46:37.931Z,12.94
2022-09-17T18:52:09.618Z,12.34
2022-09-17T18:57:41.401Z,12.38
2022-09-17T19:03:13.046Z,12.39
2022-09-17T19:08:44.813Z,11.77
2022-09-17T19:14:16.558Z,11.52
2022-09-17T19:19:48.229Z,11.59
2022-09-17T19:25:24.414Z,11.17
2022-09-17T19:30:56.156Z,11.25
2022-09-17T19:36:27.780Z,11.31
2022-09-17T19:41:59.570Z,11.48
2022-09-17T19:47:31.230Z,11.26
2022-09-17T19:53:02.989Z,11.61
2022-09-17T19:58:34.695Z,11.7
2022-09-17T20:04:06.441Z,11.87
2022-09-17T20:09:38.144Z,11.85
2022-09-17T20:15:09.865Z,11.81
2022-09-17T20:20:41.581Z,11.81
2022-09-17T20:26:17.737Z,11.88
2022-09-17T20:31:49.479Z,11.65
2022-09-17T20:37:35.983Z,11.79
2022-09-17T20:42:52.997Z,11.53
2022-09-17T20:48:24.899Z,11.62
2022-09-17T20:53:57.498Z,11.49
2022-09-17T20:59:28.936Z,11.54
2022-09-17T21:05:00.810Z,11.68
2022-09-17T21:10:32.546Z,11.68
2022-09-17T21:16:04.674Z,11.12
2022-09-17T21:21:36.117Z,11.37
2022-09-17T21:27:14.213Z,11.68
2022-09-17T21:32:45.949Z,11.27
2022-09-17T21:38:17.745Z,11.52
2022-09-17T21:43:49.389Z,11.3
2022-09-17T21:49:21.088Z,11.42
2022-09-17T21:54:52.829Z,11.35
2022-09-17T22:00:24.601Z,11.42
2022-09-17T22:05:56.325Z,11.36
2022-09-17T22:11:28.044Z,11.38
2022-09-17T22:16:59.797Z,11.28
2022-09-17T22:22:31.529Z,11.12
2022-09-17T22:28:20.342Z,11.27
2022-09-17T22:33:39.372Z,11.35
2022-09-17T22:39:11.109Z,11.55
2022-09-17T22:44:42.898Z,11.47
2022-09-17T22:50:14.533Z,11.38
2022-09-17T22:55:46.397Z,11.39
2022-09-17T23:01:17.989Z,11.5
2022-09-17T23:06:49.693Z,11.72
2022-09-17T23:12:21.439Z,11.52
2022-09-17T23:17:53.133Z,11.4
2022-09-17T23:23:24.853Z,11.37
2022-09-17T23:29:05.109Z,11.52
2022-09-17T23:34:34.741Z,11.59
2022-09-17T23:40:06.513Z,11.52
2022-09-17T23:45:38.172Z,11.56
2022-09-17T23:51:09.889Z,11.76
2022-09-17T23:56:41.685Z,11.3
